Unser Flugplatzteam

Segelflugzeugschlepp am Flugplatz Konstanz

Unsere freundlichen Mitarbeiter stehen Ihnen gerne mit Rat und Tat zur Seite:

Robert Leitner

Flugleiter, Landesbeauftragter für Luftaufsicht am Verkehrlandeplatz Konstanz

Minky Schweizer

Flugleiterin

Live am Platz

Die Bilder unserer Webcams werden alle 5 Minuten aktualisiert.

Sonnenaufgang:

06:50 UTC / 07:50 Lokal

Sonnenuntergang:

15:35 UTC / 16:35 Lokal

METAR (02.12.2020 22:20 UTC):

EDNY 022120Z AUTO VRB01KT 9000 // OVC024/// M01/M03 Q1013
MVFR

TAF (02.12.2020 18:00 UTC):

TAF EDNY 021700Z 0218/0318 VRB03KT 9000 OVC025 TEMPO 0218/0304 4000 -SN OVC008 TEMPO 0304/0308 BKN010

Alle Angaben unverbindlich und ohne Gewähr. Zeiten genähert.

Für den Verkehrslandeplatz Konstanz werden keine offiziellen Wetterinformationen ausgegeben. Daher werden zur Orientierung Daten des nahegelegenen Flughafens Friedrichshafen dargestellt.